Amherst, OH

1:49 AM EST on February 26, 2017 (GMT -0500)
Apple Orchard | | Change Station

Elev 679 ft 41.40 °N, 82.25 °W | Updated 6 seconds ago

Snow
Snow
27.5 °F
Feels Like 23 °F
N
3.6
Wind Variable Wind from SW
Gusts 4.9 mph

Today
High -- | Low -- °F
--% Chance of Precip.
Yesterday
High -- | Low -- °F
Precip. -- in
Pressure 30.04 in
Visibility 8.0 miles
Clouds Few 2100 ft
Scattered Clouds 2800 ft
Overcast 3900 ft
Windchill 23 °F
Dew Point 11 °F
Humidity 50%
Rainfall 0.00 in
Snow Depth Not available.
7:07 AM 6:16 PM
Waning Crescent, 0% visible
METAR KLPR 260553Z AUTO 30012KT 8SM -SN FEW021 SCT028 OVC039 M04/M08 A3001 RMK AO2 SNE0454B41 SLP170 P0000 60000 T10391083 11028 21039 53007
Pressure 30.04 in
Visibility 8.0 miles
Clouds Few 2100 ft
Scattered Clouds 2800 ft
Overcast 3900 ft
Windchill 23 °F
Dew Point 11 °F
Humidity 50%
Rainfall 0.00 in
Snow Depth Not available.
7:07 AM 6:16 PM
Waning Crescent, 0% visible
METAR KLPR 260553Z AUTO 30012KT 8SM -SN FEW021 SCT028 OVC039 M04/M08 A3001 RMK AO2 SNE0454B41 SLP170 P0000 60000 T10391083 11028 21039 53007

Get Your Daily Forecast Email!

Thanks for signing up!

Be on the lookout for a verification email in your inbox.

You'll start receiving the daily forecast at 8 AM.

×

10-Day Weather Forecast

Almanac

Astronomy

Feb. 26, 2017 Rise Set
Actual Time
Civil Twilight
Nautical Twilight
Astronomical Twilight
Moon
Length of Visible Light
Length of Day
Tomorrow will be .
, % of the Moon is Illuminated

Today's Extremes

State Highs State Lows

Community

WunderPhotos

Upload Photos

1,962,540 photos uploaded!

WunderBlog® & News

Nearby

Air Quality

  Air Quality AQ Index Pollutant
Not available.

Snow Depth

Station Depth Elevation

Earthquake Activity

City Distance Mag. Time & Date
Minimum magnitude displayed is 2.5.

Coastal Water Temperatures

Place Temperature

Stations

Nearby Weather Stations

Station Location Temp. Windchill Dew Point Humidity Wind Precip. Elev Updated Type
                   

Watches & Warnings

There are currently no watches in effect.